createdAt,value
2023-04-24T00:00:58.410Z,11.45
2023-04-24T00:03:29.059Z,11.48
2023-04-24T00:05:57.348Z,11.45
2023-04-24T00:08:25.300Z,11.49
2023-04-24T00:10:53.730Z,11.54
2023-04-24T00:13:21.684Z,11.58
2023-04-24T00:15:51.027Z,11.59
2023-04-24T00:18:19.380Z,11.60
2023-04-24T00:20:47.443Z,11.61
2023-04-24T00:23:15.539Z,11.58
2023-04-24T00:25:43.430Z,11.54
2023-04-24T00:28:11.419Z,11.53
2023-04-24T00:30:39.463Z,11.47
2023-04-24T00:33:08.792Z,11.56
2023-04-24T00:35:36.734Z,11.52
2023-04-24T00:38:04.764Z,11.52
2023-04-24T00:40:32.709Z,11.48
2023-04-24T00:43:00.697Z,11.51
2023-04-24T00:45:28.739Z,11.49
2023-04-24T00:47:56.868Z,11.45
2023-04-24T00:50:26.413Z,11.50
2023-04-24T00:52:54.795Z,11.46
2023-04-24T00:55:22.924Z,11.42
2023-04-24T00:57:51.850Z,11.48
2023-04-24T01:00:20.608Z,11.53
2023-04-24T01:02:49.702Z,11.45
2023-04-24T01:05:18.363Z,11.43
2023-04-24T01:07:50.084Z,11.29
2023-04-24T01:10:19.197Z,11.24
2023-04-24T01:12:48.249Z,11.20
2023-04-24T01:15:16.532Z,11.19
2023-04-24T01:17:44.481Z,11.20
2023-04-24T01:20:12.826Z,11.10
2023-04-24T01:22:44.259Z,11.17
2023-04-24T01:25:12.265Z,10.90
2023-04-24T01:27:40.189Z,10.87
2023-04-24T01:30:09.624Z,10.94
2023-04-24T01:32:38.492Z,10.93
2023-04-24T01:35:07.913Z,11.11
2023-04-24T01:37:38.186Z,11.24
2023-04-24T01:40:09.453Z,11.36
2023-04-24T01:42:37.766Z,11.37
2023-04-24T01:45:07.261Z,11.39
2023-04-24T01:47:35.267Z,11.41
2023-04-24T01:50:03.295Z,11.42
2023-04-24T01:52:32.304Z,11.41
2023-04-24T01:55:02.035Z,11.44
2023-04-24T01:57:32.455Z,11.40
2023-04-24T02:00:00.602Z,11.40
2023-04-24T02:02:31.105Z,11.44
2023-04-24T02:04:59.243Z,11.49
2023-04-24T02:07:27.247Z,11.41
2023-04-24T02:09:56.474Z,11.37
2023-04-24T02:12:24.411Z,11.41
2023-04-24T02:14:54.560Z,11.47
2023-04-24T02:17:22.776Z,11.49
2023-04-24T02:19:50.937Z,11.51
2023-04-24T02:22:18.836Z,11.50
2023-04-24T02:24:46.797Z,11.48
2023-04-24T02:27:17.330Z,11.53
2023-04-24T02:29:46.063Z,11.55
2023-04-24T02:32:16.812Z,11.50
2023-04-24T02:34:45.358Z,11.42
2023-04-24T02:37:14.189Z,11.41
2023-04-24T02:39:42.235Z,11.40
2023-04-24T02:42:10.820Z,11.40
2023-04-24T02:44:38.849Z,11.38
2023-04-24T02:47:06.802Z,11.41
2023-04-24T02:49:36.170Z,11.36
2023-04-24T02:52:04.138Z,11.33
2023-04-24T02:54:32.127Z,11.07
2023-04-24T02:57:00.044Z,11.04
2023-04-24T02:59:29.892Z,10.92
2023-04-24T03:01:57.845Z,10.39
2023-04-24T03:04:26.092Z,10.30
2023-04-24T03:06:55.796Z,10.55
2023-04-24T03:09:23.901Z,10.79
2023-04-24T03:11:52.079Z,10.87
2023-04-24T03:14:20.190Z,10.91
2023-04-24T03:16:48.242Z,11.05
2023-04-24T03:19:16.326Z,11.07
2023-04-24T03:21:57.261Z,11.03
2023-04-24T03:24:25.978Z,11.11
2023-04-24T03:26:53.962Z,11.20
2023-04-24T03:29:44.827Z,11.25
2023-04-24T03:32:13.386Z,11.23
2023-04-24T03:34:41.638Z,11.30
2023-04-24T03:37:14.256Z,11.31
2023-04-24T03:39:47.167Z,11.25
2023-04-24T03:42:16.621Z,11.24
2023-04-24T03:44:52.496Z,11.24
2023-04-24T03:47:24.428Z,11.17
2023-04-24T03:49:55.480Z,11.18
2023-04-24T03:52:24.849Z,11.19
2023-04-24T03:54:53.109Z,11.22
2023-04-24T03:57:21.223Z,11.21
2023-04-24T04:00:05.266Z,11.21
2023-04-24T04:02:42.681Z,11.17
2023-04-24T04:05:11.530Z,11.18
2023-04-24T04:07:40.904Z,11.16
2023-04-24T04:10:10.054Z,11.19
2023-04-24T04:12:39.098Z,11.15
2023-04-24T04:15:08.094Z,11.10
2023-04-24T04:17:36.607Z,11.17
2023-04-24T04:20:10.988Z,11.17
2023-04-24T04:22:44.343Z,11.16
2023-04-24T04:25:16.912Z,11.16
2023-04-24T04:27:45.131Z,11.21
2023-04-24T04:30:15.238Z,11.12
2023-04-24T04:32:50.677Z,11.11
2023-04-24T04:35:18.910Z,11.07
2023-04-24T04:37:48.478Z,10.94
2023-04-24T04:40:39.263Z,10.87
2023-04-24T04:43:08.220Z,10.77
2023-04-24T04:45:44.374Z,10.67
2023-04-24T04:48:32.416Z,10.62
2023-04-24T04:51:02.423Z,10.39
2023-04-24T04:53:32.161Z,10.46
2023-04-24T04:56:00.602Z,10.62
2023-04-24T04:58:35.267Z,10.80
2023-04-24T05:01:04.488Z,10.85
2023-04-24T05:03:37.978Z,10.86
2023-04-24T05:06:10.472Z,10.81
2023-04-24T05:08:42.073Z,10.82
2023-04-24T05:11:14.515Z,10.75
2023-04-24T05:13:43.278Z,10.75
2023-04-24T05:16:17.114Z,10.71
2023-04-24T05:18:45.147Z,10.67
2023-04-24T05:21:16.226Z,10.60
2023-04-24T05:23:49.971Z,10.54
2023-04-24T05:26:25.637Z,10.49
2023-04-24T05:28:53.798Z,10.56
2023-04-24T05:31:22.466Z,10.67
2023-04-24T05:33:51.670Z,10.69
2023-04-24T05:36:19.701Z,10.64
2023-04-24T05:38:49.829Z,10.67
2023-04-24T05:41:17.880Z,10.80
2023-04-24T05:43:45.818Z,10.92
2023-04-24T05:46:14.052Z,10.97
2023-04-24T05:48:41.940Z,11.03
2023-04-24T05:51:09.837Z,11.07
2023-04-24T05:53:37.897Z,11.08
2023-04-24T05:56:07.879Z,11.00
2023-04-24T05:58:38.424Z,10.97
2023-04-24T06:01:07.068Z,10.91
2023-04-24T06:03:35.694Z,10.85
2023-04-24T06:06:06.208Z,10.78
2023-04-24T06:08:35.393Z,10.66
2023-04-24T06:11:04.777Z,10.62
2023-04-24T06:13:35.410Z,10.63
2023-04-24T06:16:21.890Z,10.63
2023-04-24T06:18:56.501Z,10.65
2023-04-24T06:21:24.488Z,10.74
2023-04-24T06:23:52.369Z,10.83
2023-04-24T06:26:20.985Z,10.93
2023-04-24T06:28:51.388Z,10.96
2023-04-24T06:31:20.880Z,10.99
2023-04-24T06:33:48.764Z,11.02
2023-04-24T06:36:16.916Z,11.12
2023-04-24T06:38:44.797Z,11.15
2023-04-24T06:41:12.859Z,11.15
2023-04-24T06:43:41.112Z,11.12
2023-04-24T06:46:10.717Z,11.28
2023-04-24T06:48:38.718Z,11.48
2023-04-24T06:51:06.938Z,11.58
2023-04-24T06:53:34.971Z,11.40
2023-04-24T06:56:02.863Z,11.40
2023-04-24T06:58:32.510Z,11.37
2023-04-24T07:01:00.432Z,11.21
2023-04-24T07:03:29.858Z,10.95
2023-04-24T07:05:58.909Z,10.91
2023-04-24T07:08:27.017Z,11.13
2023-04-24T07:10:54.939Z,11.31
2023-04-24T07:13:22.987Z,11.35
2023-04-24T07:15:51.965Z,11.37
2023-04-24T07:18:20.012Z,11.34
2023-04-24T07:20:51.155Z,11.26
2023-04-24T07:23:19.467Z,11.24
2023-04-24T07:25:47.839Z,11.28
2023-04-24T07:28:15.747Z,11.30
2023-04-24T07:30:43.748Z,11.33
2023-04-24T07:33:14.170Z,11.42
2023-04-24T07:35:42.189Z,11.45
2023-04-24T07:38:12.041Z,11.47
2023-04-24T07:40:39.964Z,11.46
2023-04-24T07:43:07.885Z,11.43
2023-04-24T07:45:38.138Z,11.45
2023-04-24T07:48:06.410Z,11.48
2023-04-24T07:50:34.501Z,11.57
2023-04-24T07:53:02.451Z,11.75
2023-04-24T07:55:31.733Z,11.83
2023-04-24T07:57:59.650Z,11.90
2023-04-24T08:00:27.662Z,11.88
2023-04-24T08:02:55.751Z,11.98
2023-04-24T08:05:24.302Z,11.99
2023-04-24T08:07:52.399Z,12.10
2023-04-24T08:10:20.280Z,12.17
2023-04-24T08:12:49.573Z,12.19
2023-04-24T08:15:17.534Z,12.21
2023-04-24T08:17:45.597Z,12.18
2023-04-24T08:20:15.427Z,12.07
2023-04-24T08:22:43.627Z,12.18
2023-04-24T08:25:12.242Z,12.32
2023-04-24T08:27:40.924Z,12.42
2023-04-24T08:30:11.100Z,12.48
2023-04-24T08:32:39.572Z,12.47
2023-04-24T08:35:10.152Z,12.44
2023-04-24T08:37:38.249Z,12.39
2023-04-24T08:40:13.978Z,12.31
2023-04-24T08:42:43.056Z,12.32
2023-04-24T08:45:13.841Z,12.31
2023-04-24T08:47:43.257Z,12.36
2023-04-24T08:50:13.535Z,12.29
2023-04-24T08:52:41.608Z,12.46
2023-04-24T08:55:10.163Z,12.54
2023-04-24T08:57:41.090Z,12.60
2023-04-24T09:00:11.990Z,12.75
2023-04-24T09:02:45.129Z,12.78
2023-04-24T09:05:14.893Z,12.79
2023-04-24T09:07:46.784Z,12.79
2023-04-24T09:10:15.170Z,12.94
2023-04-24T09:12:43.770Z,12.88
2023-04-24T09:15:13.137Z,12.92
2023-04-24T09:17:42.413Z,12.95
2023-04-24T09:20:10.820Z,13.25
2023-04-24T09:22:39.031Z,13.27
2023-04-24T09:25:09.094Z,13.25
2023-04-24T09:27:37.418Z,13.23
2023-04-24T09:30:06.133Z,13.13
2023-04-24T09:32:34.199Z,13.08
2023-04-24T09:35:12.473Z,13.22
2023-04-24T09:37:42.418Z,13.18
2023-04-24T09:40:14.784Z,13.14
2023-04-24T09:42:46.150Z,13.12
2023-04-24T09:45:15.618Z,12.90
2023-04-24T09:47:44.747Z,12.82
2023-04-24T09:50:20.701Z,12.88
2023-04-24T09:53:06.990Z,12.99
2023-04-24T09:55:35.164Z,13.07
2023-04-24T09:58:06.239Z,13.12
2023-04-24T10:00:35.114Z,13.09
2023-04-24T10:03:04.917Z,13.37
2023-04-24T10:05:36.796Z,13.69
2023-04-24T10:08:06.492Z,14.01
2023-04-24T10:10:35.929Z,13.98
2023-04-24T10:13:04.968Z,14.07
2023-04-24T10:15:33.390Z,13.95
2023-04-24T10:18:01.797Z,13.82
2023-04-24T10:20:32.136Z,13.87
2023-04-24T10:23:02.242Z,14.24
2023-04-24T10:25:33.181Z,14.40
2023-04-24T10:28:02.347Z,14.39
2023-04-24T10:30:31.686Z,14.31
2023-04-24T10:32:59.615Z,14.33
2023-04-24T10:35:27.916Z,14.29
2023-04-24T10:37:59.611Z,14.26
2023-04-24T10:40:32.336Z,14.25
2023-04-24T10:43:00.320Z,14.33
2023-04-24T10:45:28.496Z,14.57
2023-04-24T10:48:00.565Z,14.55
2023-04-24T10:50:30.323Z,14.39
2023-04-24T10:53:08.487Z,14.36
2023-04-24T10:55:46.511Z,14.60
2023-04-24T10:58:15.878Z,14.72
2023-04-24T11:00:45.760Z,14.81
2023-04-24T11:03:28.722Z,14.46
2023-04-24T11:06:01.961Z,14.49
2023-04-24T11:08:38.287Z,14.69
2023-04-24T11:11:14.026Z,14.15
2023-04-24T11:14:09.542Z,13.94
2023-04-24T11:16:41.686Z,13.66
2023-04-24T11:19:12.960Z,13.59
2023-04-24T11:21:45.601Z,13.47
2023-04-24T11:24:31.744Z,13.37
2023-04-24T11:27:07.757Z,13.51
2023-04-24T11:29:47.404Z,13.33
2023-04-24T11:32:27.345Z,13.31
2023-04-24T11:34:56.805Z,13.66
2023-04-24T11:37:26.197Z,13.86
2023-04-24T11:39:55.662Z,13.70
2023-04-24T11:42:26.512Z,13.80
2023-04-24T11:44:56.538Z,13.66
2023-04-24T11:47:31.095Z,13.90
2023-04-24T11:50:00.516Z,14.24
2023-04-24T11:52:29.398Z,14.54
2023-04-24T11:54:57.783Z,14.57
2023-04-24T11:57:29.992Z,14.47
2023-04-24T11:59:57.977Z,14.34
2023-04-24T12:02:27.477Z,14.42
2023-04-24T12:04:56.420Z,14.85
2023-04-24T12:07:25.950Z,15.22
2023-04-24T12:09:59.426Z,15.41
2023-04-24T12:12:29.905Z,15.43
2023-04-24T12:14:59.599Z,15.00
2023-04-24T12:17:30.107Z,15.05
2023-04-24T12:20:03.280Z,14.68
2023-04-24T12:22:46.534Z,14.63
2023-04-24T12:25:14.860Z,14.78
2023-04-24T12:27:44.337Z,15.04
2023-04-24T12:30:15.338Z,15.08
2023-04-24T12:32:44.541Z,14.95
2023-04-24T12:35:12.591Z,14.86
2023-04-24T12:37:40.706Z,14.82
2023-04-24T12:40:10.618Z,14.63
2023-04-24T12:42:45.997Z,14.71
2023-04-24T12:45:14.773Z,14.93
2023-04-24T12:47:44.621Z,15.29
2023-04-24T12:50:13.937Z,15.12
2023-04-24T12:52:42.572Z,14.83
2023-04-24T12:55:12.944Z,14.71
2023-04-24T12:57:42.024Z,14.84
2023-04-24T13:00:12.274Z,15.27
2023-04-24T13:02:40.922Z,15.73
2023-04-24T13:05:09.671Z,15.95
2023-04-24T13:07:37.524Z,15.92
2023-04-24T13:10:06.011Z,15.78
2023-04-24T13:12:34.058Z,15.51
2023-04-24T13:15:01.991Z,15.79
2023-04-24T13:17:31.752Z,15.80
2023-04-24T13:19:59.677Z,16.02
2023-04-24T13:22:28.303Z,16.43
2023-04-24T13:24:57.243Z,16.50
2023-04-24T13:27:25.195Z,16.07
2023-04-24T13:29:53.269Z,15.91
2023-04-24T13:32:21.323Z,15.58
2023-04-24T13:34:50.856Z,15.21
2023-04-24T13:37:18.902Z,14.83
2023-04-24T13:39:46.789Z,15.18
2023-04-24T13:42:14.871Z,15.79
2023-04-24T13:44:42.833Z,16.07
2023-04-24T13:47:10.828Z,16.41
2023-04-24T13:49:38.751Z,16.52
2023-04-24T13:52:08.366Z,16.84
2023-04-24T13:54:36.386Z,16.95
2023-04-24T13:57:05.080Z,16.76
2023-04-24T13:59:32.983Z,16.21
2023-04-24T14:02:00.931Z,16.56
2023-04-24T14:04:29.114Z,16.91
2023-04-24T14:06:57.416Z,16.40
2023-04-24T14:09:26.687Z,16.73
2023-04-24T14:11:54.658Z,17.17
2023-04-24T14:14:22.578Z,17.44
2023-04-24T14:16:50.584Z,17.69
2023-04-24T14:19:18.498Z,17.73
2023-04-24T14:21:46.410Z,17.65
2023-04-24T14:24:14.372Z,17.71
2023-04-24T14:26:43.760Z,17.91
2023-04-24T14:29:15.094Z,17.80
2023-04-24T14:31:43.617Z,17.62
2023-04-24T14:34:11.651Z,17.37
2023-04-24T14:36:39.842Z,17.16
2023-04-24T14:39:08.635Z,17.09
2023-04-24T14:41:38.120Z,16.79
2023-04-24T14:44:07.445Z,16.48
2023-04-24T14:46:35.771Z,16.44
2023-04-24T14:49:03.817Z,16.34
2023-04-24T14:51:32.203Z,16.65
2023-04-24T14:54:00.702Z,16.27
2023-04-24T14:56:28.648Z,16.03
2023-04-24T14:58:57.469Z,15.73
2023-04-24T15:01:26.910Z,15.77
2023-04-24T15:03:55.228Z,15.92
2023-04-24T15:06:23.378Z,16.28
2023-04-24T15:08:51.325Z,16.52
2023-04-24T15:11:19.646Z,16.54
2023-04-24T15:13:47.975Z,16.62
2023-04-24T15:16:16.621Z,16.06
2023-04-24T15:18:46.250Z,16.26
2023-04-24T15:21:14.303Z,16.78
2023-04-24T15:23:42.278Z,16.72
2023-04-24T15:26:10.183Z,16.29
2023-04-24T15:28:38.068Z,16.74
2023-04-24T15:31:06.039Z,16.77
2023-04-24T15:33:33.912Z,16.77
2023-04-24T15:36:03.226Z,16.20
2023-04-24T15:38:31.341Z,16.34
2023-04-24T15:40:59.328Z,16.67
2023-04-24T15:43:27.258Z,16.81
2023-04-24T15:45:55.199Z,16.73
2023-04-24T15:48:23.139Z,16.75
2023-04-24T15:50:51.085Z,16.44
2023-04-24T15:53:22.612Z,16.44
2023-04-24T15:55:51.488Z,15.92
2023-04-24T15:58:20.400Z,16.01
2023-04-24T16:00:48.792Z,16.24
2023-04-24T16:03:16.888Z,16.99
2023-04-24T16:05:44.864Z,17.33
2023-04-24T16:08:14.213Z,17.27
2023-04-24T16:10:44.254Z,17.06
2023-04-24T16:13:12.321Z,16.79
2023-04-24T16:15:41.362Z,16.60
2023-04-24T16:18:09.383Z,16.11
2023-04-24T16:20:37.360Z,15.90
2023-04-24T16:23:05.442Z,16.23
2023-04-24T16:25:33.503Z,16.24
2023-04-24T16:28:03.206Z,16.05
2023-04-24T16:30:31.822Z,16.17
2023-04-24T16:32:59.777Z,16.23
2023-04-24T16:35:27.843Z,15.78
2023-04-24T16:37:55.775Z,15.66
2023-04-24T16:40:23.707Z,15.78
2023-04-24T16:42:52.774Z,15.59
2023-04-24T16:45:22.144Z,15.50
2023-04-24T16:47:50.102Z,15.40
2023-04-24T16:50:18.085Z,15.48
2023-04-24T16:52:45.957Z,15.43
2023-04-24T16:55:13.876Z,15.27
2023-04-24T16:57:41.858Z,15.09
2023-04-24T17:00:11.177Z,15.21
2023-04-24T17:02:40.720Z,15.37
2023-04-24T17:05:09.616Z,15.31
2023-04-24T17:07:37.740Z,14.90
2023-04-24T17:10:08.329Z,14.59
2023-04-24T17:12:36.360Z,14.41
2023-04-24T17:15:04.648Z,14.31
2023-04-24T17:17:32.556Z,14.43
2023-04-24T17:20:11.569Z,14.56
2023-04-24T17:22:49.014Z,14.29
2023-04-24T17:25:16.954Z,14.16
2023-04-24T17:27:45.539Z,14.17
2023-04-24T17:30:14.733Z,14.13
2023-04-24T17:32:43.012Z,14.01
2023-04-24T17:35:12.814Z,13.86
2023-04-24T17:37:40.964Z,13.83
2023-04-24T17:40:10.065Z,13.79
2023-04-24T17:42:41.461Z,13.82
2023-04-24T17:45:10.787Z,13.83
2023-04-24T17:47:38.751Z,13.79
2023-04-24T17:50:07.583Z,13.91
2023-04-24T17:52:36.868Z,13.83
2023-04-24T17:55:05.226Z,13.86
2023-04-24T17:57:33.195Z,13.80
2023-04-24T18:00:01.106Z,13.84
2023-04-24T18:02:29.094Z,13.88
2023-04-24T18:04:57.141Z,13.98
2023-04-24T18:07:25.153Z,14.03
2023-04-24T18:09:56.234Z,14.02
2023-04-24T18:12:24.430Z,14.06
2023-04-24T18:14:57.278Z,13.96
2023-04-24T18:17:34.446Z,13.89
2023-04-24T18:20:02.439Z,13.88
2023-04-24T18:22:30.507Z,13.83
2023-04-24T18:24:59.829Z,13.81
2023-04-24T18:27:30.923Z,13.75
2023-04-24T18:29:59.328Z,13.75
2023-04-24T18:32:28.096Z,13.74
2023-04-24T18:34:56.191Z,13.62
2023-04-24T18:37:24.074Z,13.46
2023-04-24T18:39:52.036Z,13.43
2023-04-24T18:42:21.348Z,13.34
2023-04-24T18:44:49.789Z,13.26
2023-04-24T18:47:17.715Z,13.18
2023-04-24T18:49:45.931Z,13.22
2023-04-24T18:52:13.809Z,13.31
2023-04-24T18:54:42.041Z,13.34
2023-04-24T18:57:09.994Z,13.41
2023-04-24T18:59:39.277Z,13.53
2023-04-24T19:02:07.387Z,13.60
2023-04-24T19:04:35.446Z,13.62
2023-04-24T19:07:03.369Z,13.60
2023-04-24T19:09:31.283Z,13.50
2023-04-24T19:12:00.193Z,13.42
2023-04-24T19:14:28.155Z,13.47
2023-04-24T19:16:57.586Z,13.35
2023-04-24T19:19:26.201Z,13.14
2023-04-24T19:21:54.192Z,12.97
2023-04-24T19:24:22.222Z,12.97
2023-04-24T19:26:50.088Z,12.90
2023-04-24T19:29:18.011Z,12.99
2023-04-24T19:31:45.905Z,13.03
2023-04-24T19:34:15.256Z,13.16
2023-04-24T19:36:43.573Z,13.05
2023-04-24T19:39:11.670Z,13.05
2023-04-24T19:41:40.084Z,13.03
2023-04-24T19:44:08.171Z,13.02
2023-04-24T19:46:36.197Z,13.16
2023-04-24T19:49:04.284Z,13.31
2023-04-24T19:51:33.609Z,13.40
2023-04-24T19:54:01.946Z,13.46
2023-04-24T19:56:29.845Z,13.49
2023-04-24T19:58:57.846Z,13.48
2023-04-24T20:01:25.922Z,13.47
2023-04-24T20:03:54.012Z,13.43
2023-04-24T20:06:21.986Z,13.42
2023-04-24T20:08:51.483Z,13.42
2023-04-24T20:11:19.653Z,13.38
2023-04-24T20:13:47.570Z,13.28
2023-04-24T20:16:15.761Z,13.19
2023-04-24T20:18:44.733Z,13.21
2023-04-24T20:21:12.613Z,13.22
2023-04-24T20:23:40.597Z,13.23
2023-04-24T20:26:11.391Z,13.22
2023-04-24T20:28:39.744Z,13.21
2023-04-24T20:31:07.668Z,13.22
2023-04-24T20:33:37.988Z,13.23
2023-04-24T20:36:06.099Z,13.19
2023-04-24T20:38:34.121Z,13.18
2023-04-24T20:41:02.007Z,13.17
2023-04-24T20:43:31.462Z,13.13
2023-04-24T20:45:59.414Z,12.98
2023-04-24T20:48:27.676Z,12.99
2023-04-24T20:50:55.957Z,13.00
2023-04-24T20:53:24.359Z,13.02
2023-04-24T20:55:52.373Z,13.01
2023-04-24T20:58:21.071Z,13.02
2023-04-24T21:00:50.625Z,13.07
2023-04-24T21:03:18.660Z,13.03
2023-04-24T21:05:46.977Z,13.02
2023-04-24T21:08:14.955Z,13.01
2023-04-24T21:10:42.938Z,12.98
2023-04-24T21:13:10.874Z,12.94
2023-04-24T21:15:39.033Z,12.92
2023-04-24T21:18:08.434Z,12.92
2023-04-24T21:20:36.582Z,12.77
2023-04-24T21:23:04.494Z,12.78
2023-04-24T21:25:32.951Z,12.86
2023-04-24T21:28:01.320Z,12.89
2023-04-24T21:30:30.084Z,12.87
2023-04-24T21:32:58.830Z,12.82
2023-04-24T21:35:28.139Z,12.81
2023-04-24T21:37:56.011Z,12.82
2023-04-24T21:40:23.996Z,12.78
2023-04-24T21:42:52.944Z,12.79
2023-04-24T21:45:21.349Z,12.79
2023-04-24T21:47:49.360Z,12.74
2023-04-24T21:50:17.398Z,12.60
2023-04-24T21:52:46.792Z,12.52
2023-04-24T21:55:14.837Z,12.56
2023-04-24T21:57:42.785Z,12.64
2023-04-24T22:00:13.504Z,12.67
2023-04-24T22:02:43.105Z,12.71
2023-04-24T22:05:15.638Z,12.74
2023-04-24T22:07:46.701Z,12.73
2023-04-24T22:10:18.045Z,12.71
2023-04-24T22:12:46.011Z,12.68
2023-04-24T22:15:14.001Z,12.70
2023-04-24T22:17:42.033Z,12.69
2023-04-24T22:20:11.337Z,12.68
2023-04-24T22:22:40.033Z,12.63
2023-04-24T22:25:08.791Z,12.52
2023-04-24T22:27:38.060Z,12.52
2023-04-24T22:30:08.877Z,12.56
2023-04-24T22:32:37.261Z,12.57
2023-04-24T22:35:05.620Z,12.58
2023-04-24T22:37:33.672Z,12.58
2023-04-24T22:40:01.618Z,12.60
2023-04-24T22:42:30.564Z,12.58
2023-04-24T22:44:59.864Z,12.58
2023-04-24T22:47:27.824Z,12.58
2023-04-24T22:49:57.578Z,12.58
2023-04-24T22:52:26.023Z,12.54
2023-04-24T22:54:53.975Z,12.56
2023-04-24T22:57:21.941Z,12.51
2023-04-24T22:59:49.888Z,12.50
2023-04-24T23:02:19.218Z,12.49
2023-04-24T23:04:48.377Z,12.48
2023-04-24T23:07:16.770Z,12.45
2023-04-24T23:09:44.662Z,12.45
2023-04-24T23:12:12.740Z,12.47
2023-04-24T23:14:40.690Z,12.49
2023-04-24T23:17:08.619Z,12.47
2023-04-24T23:19:37.864Z,12.48
2023-04-24T23:22:05.826Z,12.46
2023-04-24T23:24:33.719Z,12.44
2023-04-24T23:27:01.758Z,12.42
2023-04-24T23:29:29.706Z,12.44
2023-04-24T23:31:57.632Z,12.40
2023-04-24T23:34:25.680Z,12.38
2023-04-24T23:36:55.142Z,12.40
2023-04-24T23:39:23.356Z,12.38
2023-04-24T23:41:53.597Z,12.39
2023-04-24T23:44:21.508Z,12.38
2023-04-24T23:46:49.452Z,12.35
2023-04-24T23:49:17.417Z,12.35
2023-04-24T23:51:45.349Z,12.34
2023-04-24T23:54:14.751Z,12.31
2023-04-24T23:56:42.776Z,12.33
2023-04-24T23:59:10.698Z,12.29
